Stanley, Falkland Islands

9:45 AM FKST on August 01, 2014 (GMT -0300)
McKay Close (IEASTFAL2) Elev 121 ft | 51.70 °S, 57.84 °W | Change Station

Current weather conditions updated 15 minutes ago

Overcast
Overcast
40.1 °F
Feels Like 35 °F
N
7.0
Wind Variable Wind from SW
Gusts 7.0 mph

Today is forecast to be nearly the same temperature as yesterday.

Today
High -- | Low -- °F
--% Chance of Precip.
Yesterday
High -- | Low -- °F
Precip. -- in
8:28 AM 5:27 PM
Waxing Crescent, 26% visible
Pressure 29.50 in
Visibility 6.2 miles
Clouds Mostly Cloudy 1200 ft
Overcast 22000 ft
Windchill 35 °F
Dew Point 39 °F
Humidity 96%
Rainfall 0.00 in
Snow Depth Not available.
UV 0.0 out of 12
Pollen Not available.
Air Quality Not available.
Flu Activity Not available.
METAR EGYP 011150Z 25012KT 9999 BKN012 OVC220 04/03 Q0999 GRN TEMPO FEW014 BKN018 WHT

More Conditions Fewer Conditions

Pressure 29.50 in
Visibility 6.2 miles
Clouds Mostly Cloudy 1200 ft
Overcast 22000 ft
Windchill 35 °F
Dew Point 39 °F
Humidity 96%
Rainfall 0.00 in
Snow Depth Not available.
UV 0.0 out of 12
Pollen Not available.
Air Quality Not available.
Flu Activity Not available.
METAR EGYP 011150Z 25012KT 9999 BKN012 OVC220 04/03 Q0999 GRN TEMPO FEW014 BKN018 WHT

More Conditions Fewer Conditions

10-Day Weather Forecast

Almanac

Astronomy

Aug. 01, 2014 Rise Set
Actual Time 8:28 AM FKST 5:27 PM FKST
Civil Twilight 7:51 AM FKST 6:04 PM FKST
Nautical Twilight 7:10 AM FKST 6:44 PM FKST
Astronomical Twilight 6:31 AM FKST 7:24 PM FKST
Moon 10:23 AM FKST 11:48 PM FKST
Length of Visible Light 10h 12m
Length of Day
8h 59m
Tomorrow will be 3m 5s longer.
Waxing Crescent, 26% of the Moon is Illuminated
Today
Waxing Crescent
Aug 3
First Quarter
Aug 10
Full
Aug 17
Last Quarter
Aug 25
New

Yesterday's Extremes

Country Highs Country Lows

Community

WunderPhotos

Upload Photos

1,739,546 photos uploaded!

Nearby

Snow Depth

Not available.

Earthquake Activity

City Distance Mag. Time & Date
No recent earthquake activity has been reported nearby.
Minimum magnitude displayed is 2.5.

Coastal Water Temperatures

Place Temperature
No Stations Reporting

Nearby Weather Stations

Station Location Temp. Windchill Dew Point Humidity Wind Precip. Elev Updated Type
McKay Close, Stanley 40.1 °F 35 °F 39 °F 96% SW  at  7.0 mph 0.00 in / hr 121 ft 9:30 AM FKST Normal

Show More Stations Show Fewer Stations